Millers Falls, Massachusetts
Current Conditions -  °F | °C
As of 3:52 PM on Friday 21 Nov 2014 (Local Time) from KORE Reporting Station
Clear Clear  
Wind Chill: 18°   Ceiling: Unl
Heat Index: 29°   Visibility: 10mi
Dew Point:   Wind: 14mph
Humidity: 40%   Direction: 310°NW
Pressure: 30.26"   Gusts: 21mph
Location:  42.5736°N, 72.4889°W
Report Text: KORE 212052Z AUTO 31012G18KT 10SM CLR M02/M14 A3026 RMK AO2 PK WND 32027/2012 SLP254 T10171139 53032
Loading
Personal Weather Stations






























Interactive Weather Map New forecast layout! Learn more

10-Day Weather Forecast

Advertisements
Track Severe Weather on mobile